In Rescue
 
Open Full Screen Window  High Contrast Mode
Wind Gusting 00 knots
07
May 25, 2022 10:15 PM EDT
Weather Information
Wind Direction
  130 °
Wind Speed
  07 kt (8 mph)
Wind Gust
  00 kt (0 mph)
Altimeter
29.89 in
Visibility
7 SM
Temperature
18° C
64° F
Dewpoint
18° C
64° F
Humidity
100%
1hr Rain Fall
00.09 in.
24hr Rain Fall
00.52 in.
Sky Condition
Overcast @ 2,100 ft
Broken @ 1,300 ft
Broken @ 700 ft
IFR

METAR KRQB 260215Z AUTO 13007KT 7SM BKN007 BKN013 OVC021 18/18 A2989 RMK AO2 T01770175 P0009

FAA Disclaimer: The data displayed is for advisory purposes only and is not to be used for flight planning or operations.